sensor_id;sensor_type;location;lat;lon;timestamp;P1;durP1;ratioP1;P2;durP2;ratioP2
22652;SDS011;11493;43.344;26.226;2023-11-21T00:01:16;31.30;;;17.67;;
22652;SDS011;11493;43.344;26.226;2023-11-21T00:03:43;34.45;;;16.95;;
22652;SDS011;11493;43.344;26.226;2023-11-21T00:06:11;26.05;;;14.35;;
22652;SDS011;11493;43.344;26.226;2023-11-21T00:08:38;25.98;;;12.40;;
22652;SDS011;11493;43.344;26.226;2023-11-21T00:11:06;20.00;;;11.82;;
22652;SDS011;11493;43.344;26.226;2023-11-21T00:13:33;21.42;;;12.25;;
22652;SDS011;11493;43.344;26.226;2023-11-21T00:16:00;23.52;;;13.48;;
22652;SDS011;11493;43.344;26.226;2023-11-21T00:18:27;16.35;;;10.75;;
22652;SDS011;11493;43.344;26.226;2023-11-21T00:20:54;32.83;;;14.85;;
22652;SDS011;11493;43.344;26.226;2023-11-21T00:23:21;26.60;;;15.25;;
22652;SDS011;11493;43.344;26.226;2023-11-21T00:25:48;31.17;;;17.05;;
22652;SDS011;11493;43.344;26.226;2023-11-21T00:28:15;33.20;;;17.50;;
22652;SDS011;11493;43.344;26.226;2023-11-21T00:30:42;35.65;;;18.95;;
22652;SDS011;11493;43.344;26.226;2023-11-21T00:33:09;31.67;;;19.02;;
22652;SDS011;11493;43.344;26.226;2023-11-21T00:35:36;26.08;;;15.95;;
22652;SDS011;11493;43.344;26.226;2023-11-21T00:38:03;34.53;;;16.50;;
22652;SDS011;11493;43.344;26.226;2023-11-21T00:40:31;26.00;;;16.83;;
22652;SDS011;11493;43.344;26.226;2023-11-21T00:43:00;31.80;;;15.57;;
22652;SDS011;11493;43.344;26.226;2023-11-21T00:45:27;34.00;;;17.88;;
22652;SDS011;11493;43.344;26.226;2023-11-21T00:47:54;41.75;;;20.10;;
22652;SDS011;11493;43.344;26.226;2023-11-21T00:50:21;29.73;;;15.32;;
22652;SDS011;11493;43.344;26.226;2023-11-21T00:52:48;26.40;;;14.05;;
22652;SDS011;11493;43.344;26.226;2023-11-21T00:55:16;19.85;;;12.13;;
22652;SDS011;11493;43.344;26.226;2023-11-21T00:57:43;19.13;;;10.95;;
22652;SDS011;11493;43.344;26.226;2023-11-21T01:00:11;15.13;;;9.45;;
22652;SDS011;11493;43.344;26.226;2023-11-21T01:02:44;13.32;;;8.32;;
22652;SDS011;11493;43.344;26.226;2023-11-21T01:05:12;16.63;;;8.73;;
22652;SDS011;11493;43.344;26.226;2023-11-21T01:07:39;18.65;;;9.38;;
22652;SDS011;11493;43.344;26.226;2023-11-21T01:10:06;13.30;;;7.47;;
22652;SDS011;11493;43.344;26.226;2023-11-21T01:12:35;21.23;;;9.65;;
22652;SDS011;11493;43.344;26.226;2023-11-21T01:15:07;18.85;;;9.23;;
22652;SDS011;11493;43.344;26.226;2023-11-21T01:17:34;8.30;;;6.50;;
22652;SDS011;11493;43.344;26.226;2023-11-21T01:20:02;12.20;;;6.30;;
22652;SDS011;11493;43.344;26.226;2023-11-21T01:22:33;14.88;;;8.02;;
22652;SDS011;11493;43.344;26.226;2023-11-21T01:25:00;10.75;;;7.68;;
22652;SDS011;11493;43.344;26.226;2023-11-21T01:27:27;14.98;;;8.93;;
22652;SDS011;11493;43.344;26.226;2023-11-21T01:29:54;55.83;;;22.95;;
22652;SDS011;11493;43.344;26.226;2023-11-21T01:32:21;17.80;;;9.07;;
22652;SDS011;11493;43.344;26.226;2023-11-21T01:34:49;16.73;;;8.65;;
22652;SDS011;11493;43.344;26.226;2023-11-21T01:37:16;19.13;;;10.70;;
22652;SDS011;11493;43.344;26.226;2023-11-21T01:39:44;10.75;;;7.15;;
22652;SDS011;11493;43.344;26.226;2023-11-21T01:42:11;15.05;;;10.32;;
22652;SDS011;11493;43.344;26.226;2023-11-21T01:44:39;25.33;;;11.20;;
22652;SDS011;11493;43.344;26.226;2023-11-21T01:47:08;26.17;;;12.93;;
22652;SDS011;11493;43.344;26.226;2023-11-21T01:49:36;30.67;;;15.90;;
22652;SDS011;11493;43.344;26.226;2023-11-21T01:52:03;19.42;;;9.27;;
22652;SDS011;11493;43.344;26.226;2023-11-21T01:54:31;18.02;;;10.77;;
22652;SDS011;11493;43.344;26.226;2023-11-21T01:56:58;16.05;;;8.63;;
22652;SDS011;11493;43.344;26.226;2023-11-21T01:59:38;10.88;;;7.55;;
22652;SDS011;11493;43.344;26.226;2023-11-21T02:02:08;7.32;;;4.60;;
22652;SDS011;11493;43.344;26.226;2023-11-21T02:04:37;8.02;;;5.10;;
22652;SDS011;11493;43.344;26.226;2023-11-21T02:07:04;6.10;;;3.60;;
22652;SDS011;11493;43.344;26.226;2023-11-21T02:09:34;5.30;;;3.35;;
22652;SDS011;11493;43.344;26.226;2023-11-21T02:12:05;6.20;;;3.70;;
22652;SDS011;11493;43.344;26.226;2023-11-21T02:14:32;6.97;;;3.58;;
22652;SDS011;11493;43.344;26.226;2023-11-21T02:17:00;4.85;;;3.25;;
22652;SDS011;11493;43.344;26.226;2023-11-21T02:19:27;12.68;;;5.60;;
22652;SDS011;11493;43.344;26.226;2023-11-21T02:21:57;5.82;;;3.55;;
22652;SDS011;11493;43.344;26.226;2023-11-21T02:24:27;7.73;;;3.20;;
22652;SDS011;11493;43.344;26.226;2023-11-21T02:26:54;5.20;;;2.30;;
22652;SDS011;11493;43.344;26.226;2023-11-21T02:29:22;15.90;;;7.93;;
22652;SDS011;11493;43.344;26.226;2023-11-21T02:31:54;10.45;;;6.40;;
22652;SDS011;11493;43.344;26.226;2023-11-21T02:34:22;10.73;;;6.95;;
22652;SDS011;11493;43.344;26.226;2023-11-21T02:36:52;8.68;;;5.90;;
22652;SDS011;11493;43.344;26.226;2023-11-21T02:39:20;10.63;;;5.70;;
22652;SDS011;11493;43.344;26.226;2023-11-21T02:41:49;10.10;;;6.03;;
22652;SDS011;11493;43.344;26.226;2023-11-21T02:44:16;10.70;;;6.28;;
22652;SDS011;11493;43.344;26.226;2023-11-21T02:46:43;12.05;;;6.45;;
22652;SDS011;11493;43.344;26.226;2023-11-21T02:49:11;12.23;;;7.45;;
22652;SDS011;11493;43.344;26.226;2023-11-21T02:51:41;9.88;;;7.25;;
22652;SDS011;11493;43.344;26.226;2023-11-21T02:54:08;12.38;;;7.55;;
22652;SDS011;11493;43.344;26.226;2023-11-21T02:56:35;8.88;;;6.43;;
22652;SDS011;11493;43.344;26.226;2023-11-21T02:59:02;12.90;;;7.47;;
22652;SDS011;11493;43.344;26.226;2023-11-21T03:01:30;12.73;;;7.57;;
22652;SDS011;11493;43.344;26.226;2023-11-21T03:03:57;11.35;;;7.13;;
22652;SDS011;11493;43.344;26.226;2023-11-21T03:06:24;9.43;;;7.05;;
22652;SDS011;11493;43.344;26.226;2023-11-21T03:08:51;8.48;;;6.72;;
22652;SDS011;11493;43.344;26.226;2023-11-21T03:11:18;11.10;;;6.95;;
22652;SDS011;11493;43.344;26.226;2023-11-21T03:13:45;12.95;;;9.13;;
22652;SDS011;11493;43.344;26.226;2023-11-21T03:16:12;9.45;;;7.50;;
22652;SDS011;11493;43.344;26.226;2023-11-21T03:18:39;9.07;;;6.50;;
22652;SDS011;11493;43.344;26.226;2023-11-21T03:21:07;9.57;;;7.47;;
22652;SDS011;11493;43.344;26.226;2023-11-21T03:23:37;8.20;;;6.28;;
22652;SDS011;11493;43.344;26.226;2023-11-21T03:26:04;9.80;;;7.45;;
22652;SDS011;11493;43.344;26.226;2023-11-21T03:28:34;9.07;;;5.72;;
22652;SDS011;11493;43.344;26.226;2023-11-21T03:31:01;9.15;;;5.80;;
22652;SDS011;11493;43.344;26.226;2023-11-21T03:33:29;15.02;;;7.18;;
22652;SDS011;11493;43.344;26.226;2023-11-21T03:35:56;10.43;;;6.85;;
22652;SDS011;11493;43.344;26.226;2023-11-21T03:38:24;13.32;;;6.30;;
22652;SDS011;11493;43.344;26.226;2023-11-21T03:40:50;7.68;;;4.93;;
22652;SDS011;11493;43.344;26.226;2023-11-21T03:43:18;10.27;;;6.47;;
22652;SDS011;11493;43.344;26.226;2023-11-21T03:45:44;13.95;;;6.63;;
22652;SDS011;11493;43.344;26.226;2023-11-21T03:48:12;10.05;;;5.20;;
22652;SDS011;11493;43.344;26.226;2023-11-21T03:50:39;8.98;;;6.30;;
22652;SDS011;11493;43.344;26.226;2023-11-21T03:53:07;15.77;;;7.05;;
22652;SDS011;11493;43.344;26.226;2023-11-21T03:55:34;10.70;;;6.25;;
22652;SDS011;11493;43.344;26.226;2023-11-21T03:58:01;13.95;;;7.63;;
22652;SDS011;11493;43.344;26.226;2023-11-21T04:00:28;8.57;;;7.15;;
22652;SDS011;11493;43.344;26.226;2023-11-21T04:02:55;11.95;;;7.80;;
22652;SDS011;11493;43.344;26.226;2023-11-21T04:05:22;12.52;;;8.80;;
22652;SDS011;11493;43.344;26.226;2023-11-21T04:07:50;14.98;;;9.63;;
22652;SDS011;11493;43.344;26.226;2023-11-21T04:10:18;16.63;;;10.10;;
22652;SDS011;11493;43.344;26.226;2023-11-21T04:12:45;15.05;;;9.65;;
22652;SDS011;11493;43.344;26.226;2023-11-21T04:15:12;14.90;;;9.65;;
22652;SDS011;11493;43.344;26.226;2023-11-21T04:17:41;17.13;;;11.13;;
22652;SDS011;11493;43.344;26.226;2023-11-21T04:20:08;17.02;;;11.77;;
22652;SDS011;11493;43.344;26.226;2023-11-21T04:22:40;27.52;;;13.38;;
22652;SDS011;11493;43.344;26.226;2023-11-21T04:25:11;23.83;;;14.05;;
22652;SDS011;11493;43.344;26.226;2023-11-21T04:27:39;29.17;;;15.05;;
22652;SDS011;11493;43.344;26.226;2023-11-21T04:30:10;27.55;;;14.88;;
22652;SDS011;11493;43.344;26.226;2023-11-21T04:32:38;25.48;;;15.57;;
22652;SDS011;11493;43.344;26.226;2023-11-21T04:35:08;29.07;;;15.97;;
22652;SDS011;11493;43.344;26.226;2023-11-21T04:37:36;39.03;;;17.85;;
22652;SDS011;11493;43.344;26.226;2023-11-21T04:40:03;37.05;;;18.27;;
22652;SDS011;11493;43.344;26.226;2023-11-21T04:42:34;35.70;;;18.83;;
22652;SDS011;11493;43.344;26.226;2023-11-21T04:45:06;42.42;;;22.83;;
22652;SDS011;11493;43.344;26.226;2023-11-21T04:47:39;40.80;;;22.85;;
22652;SDS011;11493;43.344;26.226;2023-11-21T04:50:07;41.97;;;22.98;;
22652;SDS011;11493;43.344;26.226;2023-11-21T04:52:34;40.25;;;23.48;;
22652;SDS011;11493;43.344;26.226;2023-11-21T04:55:01;41.00;;;23.10;;
22652;SDS011;11493;43.344;26.226;2023-11-21T04:57:29;33.50;;;20.25;;
22652;SDS011;11493;43.344;26.226;2023-11-21T04:59:56;33.25;;;19.75;;
22652;SDS011;11493;43.344;26.226;2023-11-21T05:02:23;39.47;;;23.95;;
22652;SDS011;11493;43.344;26.226;2023-11-21T05:05:01;54.50;;;31.80;;
22652;SDS011;11493;43.344;26.226;2023-11-21T05:07:29;51.50;;;26.73;;
22652;SDS011;11493;43.344;26.226;2023-11-21T05:09:58;39.60;;;25.15;;
22652;SDS011;11493;43.344;26.226;2023-11-21T05:12:25;39.75;;;24.02;;
22652;SDS011;11493;43.344;26.226;2023-11-21T05:14:53;42.90;;;23.55;;
22652;SDS011;11493;43.344;26.226;2023-11-21T05:17:20;45.22;;;25.10;;
22652;SDS011;11493;43.344;26.226;2023-11-21T05:19:48;42.72;;;24.85;;
22652;SDS011;11493;43.344;26.226;2023-11-21T05:22:15;49.75;;;27.52;;
22652;SDS011;11493;43.344;26.226;2023-11-21T05:24:43;55.05;;;27.55;;
22652;SDS011;11493;43.344;26.226;2023-11-21T05:27:10;46.25;;;29.70;;
22652;SDS011;11493;43.344;26.226;2023-11-21T05:29:36;54.42;;;30.17;;
22652;SDS011;11493;43.344;26.226;2023-11-21T05:32:06;53.50;;;30.60;;
22652;SDS011;11493;43.344;26.226;2023-11-21T05:34:33;61.47;;;32.47;;
22652;SDS011;11493;43.344;26.226;2023-11-21T05:37:00;62.65;;;31.00;;
22652;SDS011;11493;43.344;26.226;2023-11-21T05:39:27;57.70;;;30.45;;
22652;SDS011;11493;43.344;26.226;2023-11-21T05:41:54;59.38;;;32.60;;
22652;SDS011;11493;43.344;26.226;2023-11-21T05:44:22;71.13;;;31.65;;
22652;SDS011;11493;43.344;26.226;2023-11-21T05:46:50;59.10;;;33.25;;
22652;SDS011;11493;43.344;26.226;2023-11-21T05:49:17;69.97;;;38.17;;
22652;SDS011;11493;43.344;26.226;2023-11-21T05:51:48;130.73;;;57.78;;
22652;SDS011;11493;43.344;26.226;2023-11-21T05:54:15;204.43;;;98.13;;
22652;SDS011;11493;43.344;26.226;2023-11-21T05:56:43;141.30;;;75.40;;
22652;SDS011;11493;43.344;26.226;2023-11-21T05:59:10;93.82;;;49.30;;
22652;SDS011;11493;43.344;26.226;2023-11-21T06:01:38;74.13;;;43.58;;
22652;SDS011;11493;43.344;26.226;2023-11-21T06:04:05;74.18;;;41.28;;
22652;SDS011;11493;43.344;26.226;2023-11-21T06:06:35;60.63;;;33.40;;
22652;SDS011;11493;43.344;26.226;2023-11-21T06:09:02;61.05;;;32.75;;
22652;SDS011;11493;43.344;26.226;2023-11-21T06:11:30;68.03;;;31.92;;
22652;SDS011;11493;43.344;26.226;2023-11-21T06:13:57;72.28;;;34.55;;
22652;SDS011;11493;43.344;26.226;2023-11-21T06:16:25;72.40;;;36.75;;
22652;SDS011;11493;43.344;26.226;2023-11-21T06:18:52;75.38;;;35.47;;
22652;SDS011;11493;43.344;26.226;2023-11-21T06:21:19;60.40;;;32.40;;
22652;SDS011;11493;43.344;26.226;2023-11-21T06:23:46;62.58;;;32.17;;
22652;SDS011;11493;43.344;26.226;2023-11-21T06:28:45;69.55;;;36.85;;
22652;SDS011;11493;43.344;26.226;2023-11-21T06:31:12;75.18;;;40.05;;
22652;SDS011;11493;43.344;26.226;2023-11-21T06:33:40;91.43;;;43.75;;
22652;SDS011;11493;43.344;26.226;2023-11-21T06:36:08;76.10;;;37.40;;
22652;SDS011;11493;43.344;26.226;2023-11-21T06:38:38;70.20;;;38.47;;
22652;SDS011;11493;43.344;26.226;2023-11-21T06:41:05;68.90;;;38.65;;
22652;SDS011;11493;43.344;26.226;2023-11-21T06:43:33;73.13;;;37.58;;
22652;SDS011;11493;43.344;26.226;2023-11-21T06:46:00;72.35;;;40.13;;
22652;SDS011;11493;43.344;26.226;2023-11-21T06:48:27;66.97;;;39.28;;
22652;SDS011;11493;43.344;26.226;2023-11-21T06:50:54;72.90;;;40.72;;
22652;SDS011;11493;43.344;26.226;2023-11-21T06:53:21;75.95;;;40.65;;
22652;SDS011;11493;43.344;26.226;2023-11-21T06:55:48;86.90;;;48.28;;
22652;SDS011;11493;43.344;26.226;2023-11-21T06:58:15;84.70;;;45.17;;
22652;SDS011;11493;43.344;26.226;2023-11-21T07:00:42;104.85;;;58.17;;
22652;SDS011;11493;43.344;26.226;2023-11-21T07:03:13;117.40;;;61.08;;
22652;SDS011;11493;43.344;26.226;2023-11-21T07:05:40;126.88;;;60.00;;
22652;SDS011;11493;43.344;26.226;2023-11-21T07:08:08;94.60;;;47.13;;
22652;SDS011;11493;43.344;26.226;2023-11-21T07:10:35;105.97;;;46.38;;
22652;SDS011;11493;43.344;26.226;2023-11-21T07:13:03;100.28;;;47.38;;
22652;SDS011;11493;43.344;26.226;2023-11-21T07:15:30;96.35;;;47.42;;
22652;SDS011;11493;43.344;26.226;2023-11-21T07:17:57;97.50;;;45.47;;
22652;SDS011;11493;43.344;26.226;2023-11-21T07:20:25;99.32;;;46.70;;
22652;SDS011;11493;43.344;26.226;2023-11-21T07:22:53;97.13;;;44.92;;
22652;SDS011;11493;43.344;26.226;2023-11-21T07:25:20;79.07;;;41.60;;
22652;SDS011;11493;43.344;26.226;2023-11-21T07:27:48;100.97;;;50.67;;
22652;SDS011;11493;43.344;26.226;2023-11-21T07:30:16;122.32;;;57.30;;
22652;SDS011;11493;43.344;26.226;2023-11-21T07:32:44;139.48;;;79.78;;
22652;SDS011;11493;43.344;26.226;2023-11-21T07:35:14;109.50;;;52.83;;
22652;SDS011;11493;43.344;26.226;2023-11-21T07:37:42;99.25;;;41.15;;
22652;SDS011;11493;43.344;26.226;2023-11-21T07:40:09;80.30;;;42.05;;
22652;SDS011;11493;43.344;26.226;2023-11-21T07:42:38;66.20;;;33.40;;
22652;SDS011;11493;43.344;26.226;2023-11-21T07:45:05;55.45;;;29.00;;
22652;SDS011;11493;43.344;26.226;2023-11-21T07:47:34;70.78;;;30.95;;
22652;SDS011;11493;43.344;26.226;2023-11-21T07:50:03;63.65;;;27.90;;
22652;SDS011;11493;43.344;26.226;2023-11-21T07:52:30;60.80;;;28.08;;
22652;SDS011;11493;43.344;26.226;2023-11-21T07:54:57;68.90;;;31.00;;
22652;SDS011;11493;43.344;26.226;2023-11-21T07:57:25;60.55;;;31.88;;
22652;SDS011;11493;43.344;26.226;2023-11-21T07:59:52;70.88;;;30.85;;
22652;SDS011;11493;43.344;26.226;2023-11-21T08:02:21;66.95;;;33.63;;
22652;SDS011;11493;43.344;26.226;2023-11-21T08:04:48;75.20;;;34.97;;
22652;SDS011;11493;43.344;26.226;2023-11-21T08:07:17;59.55;;;28.65;;
22652;SDS011;11493;43.344;26.226;2023-11-21T08:09:44;73.88;;;34.00;;
22652;SDS011;11493;43.344;26.226;2023-11-21T08:12:12;66.60;;;32.22;;
22652;SDS011;11493;43.344;26.226;2023-11-21T08:14:41;66.10;;;34.75;;
22652;SDS011;11493;43.344;26.226;2023-11-21T08:17:09;71.82;;;33.88;;
22652;SDS011;11493;43.344;26.226;2023-11-21T08:19:37;64.45;;;32.78;;
22652;SDS011;11493;43.344;26.226;2023-11-21T08:22:04;83.55;;;43.30;;
22652;SDS011;11493;43.344;26.226;2023-11-21T08:24:31;91.07;;;41.80;;
22652;SDS011;11493;43.344;26.226;2023-11-21T08:26:58;88.05;;;39.28;;
22652;SDS011;11493;43.344;26.226;2023-11-21T08:29:25;72.13;;;35.42;;
22652;SDS011;11493;43.344;26.226;2023-11-21T08:31:53;77.65;;;33.53;;
22652;SDS011;11493;43.344;26.226;2023-11-21T08:34:21;66.78;;;32.78;;
22652;SDS011;11493;43.344;26.226;2023-11-21T08:36:48;71.72;;;34.35;;
22652;SDS011;11493;43.344;26.226;2023-11-21T08:39:15;60.35;;;32.58;;
22652;SDS011;11493;43.344;26.226;2023-11-21T08:41:43;71.63;;;31.65;;
22652;SDS011;11493;43.344;26.226;2023-11-21T08:44:10;58.97;;;29.92;;
22652;SDS011;11493;43.344;26.226;2023-11-21T08:46:37;69.55;;;28.48;;
22652;SDS011;11493;43.344;26.226;2023-11-21T08:49:05;48.92;;;26.90;;
22652;SDS011;11493;43.344;26.226;2023-11-21T08:51:32;55.67;;;27.52;;
22652;SDS011;11493;43.344;26.226;2023-11-21T08:54:00;74.57;;;28.75;;
22652;SDS011;11493;43.344;26.226;2023-11-21T08:56:31;54.33;;;24.58;;
22652;SDS011;11493;43.344;26.226;2023-11-21T08:58:58;45.25;;;21.55;;
22652;SDS011;11493;43.344;26.226;2023-11-21T09:01:29;34.13;;;13.43;;
22652;SDS011;11493;43.344;26.226;2023-11-21T09:03:58;32.75;;;15.80;;
22652;SDS011;11493;43.344;26.226;2023-11-21T09:06:25;36.17;;;12.82;;
22652;SDS011;11493;43.344;26.226;2023-11-21T09:08:52;34.33;;;10.13;;
22652;SDS011;11493;43.344;26.226;2023-11-21T09:11:19;26.95;;;8.63;;
22652;SDS011;11493;43.344;26.226;2023-11-21T09:13:46;18.90;;;7.22;;
22652;SDS011;11493;43.344;26.226;2023-11-21T09:16:14;25.77;;;8.15;;
22652;SDS011;11493;43.344;26.226;2023-11-21T09:18:43;21.50;;;8.85;;
22652;SDS011;11493;43.344;26.226;2023-11-21T09:21:11;33.60;;;8.10;;
22652;SDS011;11493;43.344;26.226;2023-11-21T09:23:39;18.83;;;6.57;;
22652;SDS011;11493;43.344;26.226;2023-11-21T09:26:06;18.73;;;7.05;;
22652;SDS011;11493;43.344;26.226;2023-11-21T09:28:33;11.07;;;4.70;;
22652;SDS011;11493;43.344;26.226;2023-11-21T09:31:01;9.52;;;4.32;;
22652;SDS011;11493;43.344;26.226;2023-11-21T09:33:30;14.20;;;7.88;;
22652;SDS011;11493;43.344;26.226;2023-11-21T09:35:57;11.63;;;5.75;;
22652;SDS011;11493;43.344;26.226;2023-11-21T09:38:25;11.02;;;4.75;;
22652;SDS011;11493;43.344;26.226;2023-11-21T09:40:52;7.07;;;4.22;;
22652;SDS011;11493;43.344;26.226;2023-11-21T09:43:20;7.57;;;5.30;;
22652;SDS011;11493;43.344;26.226;2023-11-21T09:45:54;13.82;;;6.50;;
22652;SDS011;11493;43.344;26.226;2023-11-21T09:48:26;22.17;;;7.75;;
22652;SDS011;11493;43.344;26.226;2023-11-21T09:50:54;20.45;;;8.10;;
22652;SDS011;11493;43.344;26.226;2023-11-21T09:53:22;12.10;;;6.18;;
22652;SDS011;11493;43.344;26.226;2023-11-21T09:55:51;14.95;;;6.47;;
22652;SDS011;11493;43.344;26.226;2023-11-21T09:58:20;8.30;;;3.53;;
22652;SDS011;11493;43.344;26.226;2023-11-21T10:00:50;12.18;;;10.32;;
22652;SDS011;11493;43.344;26.226;2023-11-21T10:03:20;11.85;;;6.07;;
22652;SDS011;11493;43.344;26.226;2023-11-21T10:05:48;15.15;;;4.57;;
22652;SDS011;11493;43.344;26.226;2023-11-21T10:08:17;7.95;;;5.10;;
22652;SDS011;11493;43.344;26.226;2023-11-21T10:10:47;7.47;;;5.07;;
22652;SDS011;11493;43.344;26.226;2023-11-21T10:13:18;7.40;;;4.93;;
22652;SDS011;11493;43.344;26.226;2023-11-21T10:15:49;11.02;;;3.15;;
22652;SDS011;11493;43.344;26.226;2023-11-21T10:18:18;9.18;;;4.13;;
22652;SDS011;11493;43.344;26.226;2023-11-21T10:20:46;17.30;;;9.02;;
22652;SDS011;11493;43.344;26.226;2023-11-21T10:23:20;16.75;;;5.22;;
22652;SDS011;11493;43.344;26.226;2023-11-21T10:25:51;4.75;;;3.35;;
22652;SDS011;11493;43.344;26.226;2023-11-21T10:28:19;10.85;;;5.43;;
22652;SDS011;11493;43.344;26.226;2023-11-21T10:30:48;8.93;;;3.95;;
22652;SDS011;11493;43.344;26.226;2023-11-21T10:33:15;14.15;;;5.00;;
22652;SDS011;11493;43.344;26.226;2023-11-21T10:35:46;12.15;;;9.52;;
22652;SDS011;11493;43.344;26.226;2023-11-21T10:38:18;9.07;;;2.90;;
22652;SDS011;11493;43.344;26.226;2023-11-21T10:40:47;5.32;;;2.80;;
22652;SDS011;11493;43.344;26.226;2023-11-21T10:43:16;7.05;;;3.70;;
22652;SDS011;11493;43.344;26.226;2023-11-21T10:45:44;9.73;;;3.30;;
22652;SDS011;11493;43.344;26.226;2023-11-21T10:48:15;10.02;;;6.05;;
22652;SDS011;11493;43.344;26.226;2023-11-21T10:50:46;24.05;;;14.13;;
22652;SDS011;11493;43.344;26.226;2023-11-21T10:53:16;21.30;;;14.13;;
22652;SDS011;11493;43.344;26.226;2023-11-21T10:55:46;18.95;;;13.23;;
22652;SDS011;11493;43.344;26.226;2023-11-21T10:58:13;24.23;;;12.27;;
22652;SDS011;11493;43.344;26.226;2023-11-21T11:00:41;22.80;;;12.52;;
22652;SDS011;11493;43.344;26.226;2023-11-21T11:03:12;17.60;;;10.45;;
22652;SDS011;11493;43.344;26.226;2023-11-21T11:05:43;18.08;;;9.77;;
22652;SDS011;11493;43.344;26.226;2023-11-21T11:08:21;16.40;;;8.48;;
22652;SDS011;11493;43.344;26.226;2023-11-21T11:10:54;8.30;;;5.45;;
22652;SDS011;11493;43.344;26.226;2023-11-21T11:13:22;7.10;;;4.90;;
22652;SDS011;11493;43.344;26.226;2023-11-21T11:15:51;8.80;;;4.90;;
22652;SDS011;11493;43.344;26.226;2023-11-21T11:18:28;6.78;;;3.42;;
22652;SDS011;11493;43.344;26.226;2023-11-21T11:23:46;7.53;;;4.82;;
22652;SDS011;11493;43.344;26.226;2023-11-21T11:26:47;7.78;;;3.63;;
22652;SDS011;11493;43.344;26.226;2023-11-21T11:29:43;4.22;;;2.40;;
22652;SDS011;11493;43.344;26.226;2023-11-21T11:32:52;3.53;;;1.50;;
22652;SDS011;11493;43.344;26.226;2023-11-21T11:35:49;2.75;;;1.70;;
22652;SDS011;11493;43.344;26.226;2023-11-21T11:38:21;5.03;;;1.30;;
22652;SDS011;11493;43.344;26.226;2023-11-21T11:40:53;3.65;;;1.50;;
22652;SDS011;11493;43.344;26.226;2023-11-21T11:43:24;2.85;;;1.60;;
22652;SDS011;11493;43.344;26.226;2023-11-21T11:48:23;2.38;;;1.23;;
22652;SDS011;11493;43.344;26.226;2023-11-21T11:51:10;3.17;;;1.92;;
22652;SDS011;11493;43.344;26.226;2023-11-21T11:53:44;7.03;;;2.50;;
22652;SDS011;11493;43.344;26.226;2023-11-21T11:56:19;8.80;;;2.97;;
22652;SDS011;11493;43.344;26.226;2023-11-21T11:59:04;4.53;;;2.78;;
22652;SDS011;11493;43.344;26.226;2023-11-21T12:01:33;4.13;;;2.38;;
22652;SDS011;11493;43.344;26.226;2023-11-21T12:07:01;18.88;;;2.35;;
22652;SDS011;11493;43.344;26.226;2023-11-21T12:09:30;1.95;;;1.30;;
22652;SDS011;11493;43.344;26.226;2023-11-21T12:11:58;2.00;;;1.50;;
22652;SDS011;11493;43.344;26.226;2023-11-21T12:14:26;1.88;;;1.10;;
22652;SDS011;11493;43.344;26.226;2023-11-21T12:16:55;3.05;;;1.55;;
22652;SDS011;11493;43.344;26.226;2023-11-21T12:19:22;12.23;;;1.70;;
22652;SDS011;11493;43.344;26.226;2023-11-21T12:21:49;3.85;;;1.65;;
22652;SDS011;11493;43.344;26.226;2023-11-21T12:24:16;4.32;;;2.45;;
22652;SDS011;11493;43.344;26.226;2023-11-21T12:26:44;6.13;;;2.70;;
22652;SDS011;11493;43.344;26.226;2023-11-21T12:29:11;6.53;;;3.35;;
22652;SDS011;11493;43.344;26.226;2023-11-21T12:31:38;6.82;;;3.58;;
22652;SDS011;11493;43.344;26.226;2023-11-21T12:34:07;7.75;;;4.10;;
22652;SDS011;11493;43.344;26.226;2023-11-21T12:36:38;5.63;;;4.25;;
22652;SDS011;11493;43.344;26.226;2023-11-21T12:39:05;5.38;;;4.53;;
22652;SDS011;11493;43.344;26.226;2023-11-21T12:41:32;4.97;;;2.63;;
22652;SDS011;11493;43.344;26.226;2023-11-21T12:43:59;4.95;;;3.00;;
22652;SDS011;11493;43.344;26.226;2023-11-21T12:46:27;3.38;;;2.75;;
22652;SDS011;11493;43.344;26.226;2023-11-21T12:49:00;4.13;;;2.47;;
22652;SDS011;11493;43.344;26.226;2023-11-21T12:51:28;6.65;;;2.95;;
22652;SDS011;11493;43.344;26.226;2023-11-21T12:53:55;3.33;;;2.08;;
22652;SDS011;11493;43.344;26.226;2023-11-21T12:56:23;4.18;;;2.70;;
22652;SDS011;11493;43.344;26.226;2023-11-21T12:58:53;7.45;;;1.98;;
22652;SDS011;11493;43.344;26.226;2023-11-21T13:01:25;6.65;;;3.20;;
22652;SDS011;11493;43.344;26.226;2023-11-21T13:06:23;7.68;;;6.57;;
22652;SDS011;11493;43.344;26.226;2023-11-21T13:08:56;10.32;;;5.30;;
22652;SDS011;11493;43.344;26.226;2023-11-21T13:11:26;9.02;;;5.10;;
22652;SDS011;11493;43.344;26.226;2023-11-21T13:13:54;6.32;;;4.07;;
22652;SDS011;11493;43.344;26.226;2023-11-21T13:16:23;7.90;;;3.40;;
22652;SDS011;11493;43.344;26.226;2023-11-21T13:18:50;5.63;;;3.63;;
22652;SDS011;11493;43.344;26.226;2023-11-21T13:21:17;8.25;;;4.07;;
22652;SDS011;11493;43.344;26.226;2023-11-21T13:23:44;11.43;;;7.00;;
22652;SDS011;11493;43.344;26.226;2023-11-21T13:26:13;8.63;;;6.60;;
22652;SDS011;11493;43.344;26.226;2023-11-21T13:28:42;20.85;;;8.27;;
22652;SDS011;11493;43.344;26.226;2023-11-21T13:31:13;11.38;;;7.45;;
22652;SDS011;11493;43.344;26.226;2023-11-21T13:33:49;16.40;;;7.38;;
22652;SDS011;11493;43.344;26.226;2023-11-21T13:36:32;9.40;;;4.13;;
22652;SDS011;11493;43.344;26.226;2023-11-21T13:39:03;12.18;;;5.25;;
22652;SDS011;11493;43.344;26.226;2023-11-21T13:41:42;16.00;;;4.85;;
22652;SDS011;11493;43.344;26.226;2023-11-21T13:44:09;11.80;;;4.82;;
22652;SDS011;11493;43.344;26.226;2023-11-21T13:46:54;14.52;;;7.05;;
22652;SDS011;11493;43.344;26.226;2023-11-21T13:49:24;11.18;;;6.88;;
22652;SDS011;11493;43.344;26.226;2023-11-21T13:51:53;10.80;;;4.70;;
22652;SDS011;11493;43.344;26.226;2023-11-21T13:54:22;11.18;;;4.18;;
22652;SDS011;11493;43.344;26.226;2023-11-21T13:56:52;3.55;;;2.70;;
22652;SDS011;11493;43.344;26.226;2023-11-21T13:59:19;9.57;;;2.90;;
22652;SDS011;11493;43.344;26.226;2023-11-21T14:01:55;7.15;;;2.00;;
22652;SDS011;11493;43.344;26.226;2023-11-21T14:04:25;4.93;;;2.70;;
22652;SDS011;11493;43.344;26.226;2023-11-21T14:07:12;23.42;;;12.57;;
22652;SDS011;11493;43.344;26.226;2023-11-21T14:09:58;263.55;;;127.20;;
22652;SDS011;11493;43.344;26.226;2023-11-21T14:12:25;62.50;;;26.25;;
22652;SDS011;11493;43.344;26.226;2023-11-21T14:14:52;229.93;;;96.45;;
22652;SDS011;11493;43.344;26.226;2023-11-21T14:17:22;38.50;;;13.25;;
22652;SDS011;11493;43.344;26.226;2023-11-21T14:19:51;58.78;;;38.47;;
22652;SDS011;11493;43.344;26.226;2023-11-21T14:22:18;14.25;;;9.25;;
22652;SDS011;11493;43.344;26.226;2023-11-21T14:24:45;22.88;;;10.00;;
22652;SDS011;11493;43.344;26.226;2023-11-21T14:27:14;29.13;;;17.02;;
22652;SDS011;11493;43.344;26.226;2023-11-21T14:29:44;17.73;;;6.78;;
22652;SDS011;11493;43.344;26.226;2023-11-21T14:32:12;13.25;;;3.40;;
22652;SDS011;11493;43.344;26.226;2023-11-21T14:34:41;6.10;;;3.33;;
22652;SDS011;11493;43.344;26.226;2023-11-21T14:37:12;8.25;;;4.22;;
22652;SDS011;11493;43.344;26.226;2023-11-21T14:39:40;7.55;;;3.83;;
22652;SDS011;11493;43.344;26.226;2023-11-21T14:42:11;10.90;;;3.72;;